Time;durP1;ratioP1;P1;durP2;ratioP2;P2;SDS_P1;SDS_P2;PMS_P1;PMS_P2;Temp;Humidity;BMP_temperature;BMP_pressure;BME280_temperature;BME280_humidity;BME280_pressure;Samples;Min_cycle;Max_cycle;Signal;HPM_P1;HPM_P2
2022/12/27 07:45:06;;;;;;;13.75;4.32;;;;;;;4.77;100.00;102117.34;5104703;27;20351;-72
2022/12/27 07:47:33;;;;;;;6.63;2.90;;;;;;;5.20;100.00;102126.28;5089723;28;20079;-71
2022/12/27 07:49:59;;;;;;;17.50;2.72;;;;;;;5.54;100.00;102117.13;5084778;28;20048;-73
2022/12/27 07:52:26;;;;;;;6.28;2.70;;;;;;;5.76;100.00;102125.09;5089237;28;20048;-71
2022/12/27 07:54:52;;;;;;;8.63;2.30;;;;;;;5.95;100.00;102130.19;5087203;28;20044;-74
2022/12/27 07:57:19;;;;;;;18.90;3.42;;;;;;;6.00;100.00;102135.50;5081555;28;20101;-72
2022/12/27 07:59:45;;;;;;;0.63;0.63;;;;;;;6.10;100.00;102135.09;5087950;28;20060;-71
2022/12/27 08:02:12;;;;;;;12.88;3.03;;;;;;;6.14;100.00;102136.06;5089911;28;20044;-74
2022/12/27 08:04:39;;;;;;;10.35;3.80;;;;;;;6.08;100.00;102134.66;5090455;28;20048;-71
2022/12/27 08:07:07;;;;;;;13.70;4.78;;;;;;;6.14;100.00;102133.31;5083261;28;20041;-72
2022/12/27 08:09:38;;;;;;;10.98;3.70;;;;;;;6.22;100.00;102130.50;5087807;28;20141;-74
2022/12/27 08:12:06;;;;;;;12.45;3.80;;;;;;;6.18;100.00;102137.00;5084308;28;20505;-73
2022/12/27 08:14:33;;;;;;;14.40;4.57;;;;;;;6.19;100.00;102141.34;5087252;28;20055;-72
2022/12/27 08:17:06;;;;;;;13.75;5.50;;;;;;;6.21;100.00;102137.13;5065215;28;20048;-74
2022/12/27 08:19:33;;;;;;;22.50;5.95;;;;;;;6.37;100.00;102138.16;5081416;28;20056;-75
2022/12/27 08:21:59;;;;;;;19.88;5.43;;;;;;;6.27;100.00;102134.97;5074868;28;20049;-73
2022/12/27 08:24:26;;;;;;;15.90;4.55;;;;;;;6.28;100.00;102142.09;5079700;28;20037;-72
2022/12/27 08:26:52;;;;;;;16.95;5.57;;;;;;;6.25;100.00;102145.53;5080493;28;20068;-73
2022/12/27 08:29:19;;;;;;;13.90;4.38;;;;;;;6.37;100.00;102148.34;5086353;28;20044;-74
2022/12/27 08:31:45;;;;;;;11.27;4.28;;;;;;;6.32;100.00;102148.53;5084152;28;20055;-75
2022/12/27 08:34:12;;;;;;;11.77;4.68;;;;;;;6.34;100.00;102144.31;5083573;28;20048;-71
2022/12/27 08:36:38;;;;;;;30.38;9.65;;;;;;;6.30;100.00;102157.13;5082870;28;20052;-72
2022/12/27 08:39:22;;;;;;;13.95;4.82;;;;;;;6.41;100.00;102157.53;5080825;28;20578;-73
2022/12/27 08:41:48;;;;;;;5.18;2.47;;;;;;;6.40;100.00;102156.72;5083857;28;20588;-72
2022/12/27 08:44:15;;;;;;;14.30;4.75;;;;;;;6.38;100.00;102161.75;5077062;28;20143;-74
2022/12/27 08:46:41;;;;;;;19.23;6.07;;;;;;;6.35;100.00;102165.16;5084134;28;20054;-72
2022/12/27 08:49:08;;;;;;;12.60;3.65;;;;;;;6.45;100.00;102161.22;5087534;28;20052;-72
2022/12/27 08:51:34;;;;;;;15.40;4.72;;;;;;;6.41;100.00;102157.53;5082060;28;20048;-73
2022/12/27 08:54:07;;;;;;;12.10;2.85;;;;;;;6.53;100.00;102155.66;5081896;28;20056;-72
2022/12/27 08:56:34;;;;;;;16.17;4.43;;;;;;;6.44;100.00;102170.59;5069258;28;20048;-73
2022/12/27 08:59:01;;;;;;;12.43;3.83;;;;;;;6.44;100.00;102165.09;5068569;28;20052;-75
2022/12/27 09:01:28;;;;;;;16.58;4.18;;;;;;;6.52;100.00;102173.28;5062656;28;20056;-76
2022/12/27 09:03:54;;;;;;;13.18;3.88;;;;;;;6.62;100.00;102177.59;5061465;28;20083;-73
2022/12/27 09:06:23;;;;;;;17.33;4.47;;;;;;;6.62;100.00;102177.59;5061792;28;20261;-73
2022/12/27 09:08:51;;;;;;;11.10;4.05;;;;;;;6.62;100.00;102177.59;5057947;28;20094;-75
2022/12/27 09:11:27;;;;;;;6.68;2.63;;;;;;;6.78;100.00;102171.16;5057983;28;20048;-75
2022/12/27 09:13:56;;;;;;;6.10;2.83;;;;;;;6.94;100.00;102187.84;5058972;28;20060;-74
2022/12/27 09:16:26;;;;;;;12.75;3.55;;;;;;;6.90;100.00;102184.16;5060850;28;20048;-75
2022/12/27 09:18:55;;;;;;;15.82;5.47;;;;;;;7.07;100.00;102184.00;5060089;28;20056;-72
2022/12/27 09:21:23;;;;;;;8.30;3.05;;;;;;;7.09;100.00;102188.00;5060486;28;20090;-72
2022/12/27 09:23:50;;;;;;;23.42;4.75;;;;;;;6.92;100.00;102188.16;5064335;28;20131;-73
2022/12/27 09:26:19;;;;;;;3.60;1.48;;;;;;;7.16;100.00;102182.75;5067412;28;20079;-71
2022/12/27 09:28:47;;;;;;;10.13;2.85;;;;;;;7.16;100.00;102182.75;5065454;28;20056;-73
2022/12/27 09:31:15;;;;;;;15.70;4.35;;;;;;;7.09;100.00;102179.75;5064173;28;20205;-73
2022/12/27 09:33:42;;;;;;;17.00;4.28;;;;;;;7.13;100.00;102183.44;5069931;28;20084;-71
2022/12/27 09:36:11;;;;;;;14.32;5.07;;;;;;;7.15;100.00;102183.09;5063753;28;20780;-72
2022/12/27 09:38:38;;;;;;;14.90;3.90;;;;;;;7.17;100.00;102181.63;5069518;28;20080;-73
2022/12/27 09:41:12;;;;;;;11.35;3.13;;;;;;;7.24;100.00;102200.34;5066366;28;20060;-74
2022/12/27 09:44:13;;;;;;;19.52;6.22;;;;;;;7.18;100.00;102187.94;5065826;28;20120;-72
2022/12/27 09:46:42;;;;;;;7.60;2.65;;;;;;;7.30;100.00;102182.47;5069733;28;20056;-74
2022/12/27 09:49:25;;;;;;;16.40;5.43;;;;;;;7.19;100.00;102175.78;5070093;28;20080;-73
2022/12/27 09:51:58;;;;;;;7.95;3.85;;;;;;;7.34;100.00;102175.13;5064284;28;20067;-71
2022/12/27 09:54:30;;;;;;;15.05;3.97;;;;;;;7.34;100.00;102183.41;5069005;28;20041;-71
2022/12/27 09:56:59;;;;;;;10.18;4.63;;;;;;;7.37;100.00;102166.19;5069065;28;20061;-74
2022/12/27 09:59:48;;;;;;;7.68;2.95;;;;;;;7.53;100.00;102169.91;5064374;28;20071;-74
2022/12/27 10:02:24;;;;;;;21.48;6.70;;;;;;;7.31;100.00;102184.88;5058269;28;20059;-72
2022/12/27 10:04:52;;;;;;;10.13;3.85;;;;;;;7.68;100.00;102161.78;5054809;28;20826;-74
2022/12/27 10:07:56;;;;;;;9.02;3.70;;;;;;;7.62;100.00;102174.16;5054676;28;20059;-72
2022/12/27 10:10:37;;;;;;;11.77;4.55;;;;;;;7.62;100.00;102176.91;5056840;28;20060;-72
2022/12/27 10:13:18;;;;;;;13.25;3.60;;;;;;;7.79;100.00;102178.66;5058255;28;20048;-73
2022/12/27 10:16:46;;;;;;;5.50;2.25;;;;;;;7.83;100.00;102174.06;5059251;28;20048;-73
2022/12/27 10:19:24;;;;;;;8.50;4.20;;;;;;;7.90;100.00;102175.09;5045410;28;20106;-73
2022/12/27 10:22:04;;;;;;;8.57;3.65;;;;;;;7.95;100.00;102176.81;5043580;28;20047;-72
2022/12/27 10:24:49;;;;;;;21.30;5.40;;;;;;;8.13;100.00;102183.72;5042954;28;20047;-71
2022/12/27 10:27:24;;;;;;;12.32;4.10;;;;;;;8.12;100.00;102181.28;5045891;28;20057;-72
2022/12/27 10:29:56;;;;;;;10.90;3.97;;;;;;;8.20;100.00;102183.16;5044791;28;20131;-74
2022/12/27 10:32:22;;;;;;;12.05;2.78;;;;;;;8.18;100.00;102185.44;5046100;28;20037;-73
2022/12/27 10:34:56;;;;;;;11.40;3.67;;;;;;;8.28;100.00;102179.47;5034844;28;20076;-74
2022/12/27 10:37:22;;;;;;;21.92;6.85;;;;;;;8.34;100.00;102186.38;5047882;28;20092;-71
2022/12/27 10:39:49;;;;;;;15.77;5.32;;;;;;;8.64;100.00;102171.94;5042184;28;20055;-71
2022/12/27 10:42:40;;;;;;;13.60;3.55;;;;;;;8.78;100.00;102166.81;5044748;28;20128;-72
2022/12/27 10:45:28;;;;;;;5.03;2.53;;;;;;;8.82;100.00;102175.22;5045377;28;20048;-73
2022/12/27 10:47:58;;;;;;;13.27;3.90;;;;;;;8.85;100.00;102175.34;5048817;28;20071;-72
2022/12/27 10:50:28;;;;;;;13.02;4.13;;;;;;;9.13;100.00;102167.03;5049803;28;20052;-72
2022/12/27 10:52:55;;;;;;;10.35;3.08;;;;;;;9.35;100.00;102174.75;5064294;28;20067;-73
2022/12/27 10:55:34;;;;;;;10.52;3.38;;;;;;;9.84;100.00;102173.25;5067820;28;20055;-73
2022/12/27 10:58:30;;;;;;;9.35;3.38;;;;;;;10.16;100.00;102175.66;5070304;28;20075;-72
2022/12/27 11:00:57;;;;;;;20.33;5.13;;;;;;;10.37;100.00;102176.16;5061004;28;20491;-75
2022/12/27 11:03:25;;;;;;;7.90;3.20;;;;;;;10.07;100.00;102190.84;5054538;28;20067;-73
2022/12/27 11:06:03;;;;;;;10.70;3.55;;;;;;;10.00;100.00;102180.38;5054631;28;20496;-73
2022/12/27 11:08:30;;;;;;;12.30;3.60;;;;;;;10.10;100.00;102179.88;5070107;28;20056;-73
2022/12/27 11:11:12;;;;;;;10.80;2.30;;;;;;;10.41;100.00;102182.59;5061652;28;20466;-73
2022/12/27 11:13:39;;;;;;;11.50;3.00;;;;;;;10.22;100.00;102188.06;5043506;28;20052;-72
2022/12/27 11:16:21;;;;;;;20.65;4.03;;;;;;;10.07;100.00;102193.63;5037845;28;20044;-73
2022/12/27 11:18:51;;;;;;;12.45;3.72;;;;;;;10.18;100.00;102198.25;5035358;28;20286;-74
2022/12/27 11:21:19;;;;;;;4.75;2.00;;;;;;;10.62;100.00;102178.66;5045753;28;20989;-74
2022/12/27 11:23:58;;;;;;;6.38;2.50;;;;;;;10.77;100.00;102181.41;5034912;28;20082;-72
2022/12/27 11:26:41;;;;;;;18.40;4.18;;;;;;;10.54;100.00;102183.28;5047938;28;20065;-73
2022/12/27 11:29:18;;;;;;;6.32;1.95;;;;;;;9.98;100.00;102181.91;5040025;28;20055;-73
2022/12/27 11:31:47;;;;;;;7.68;3.05;;;;;;;10.60;100.00;102181.03;5034578;28;20044;-73
2022/12/27 11:34:18;;;;;;;9.43;3.53;;;;;;;10.59;100.00;102182.97;5040889;28;20141;-74
2022/12/27 11:36:50;;;;;;;11.25;3.40;;;;;;;10.43;100.00;102185.78;5043532;28;20781;-71
2022/12/27 11:39:41;;;;;;;15.70;4.28;;;;;;;11.89;100.00;102182.78;5036988;28;20150;-72
2022/12/27 11:42:20;;;;;;;15.68;3.72;;;;;;;12.35;100.00;102173.19;5040435;28;20051;-74
2022/12/27 11:44:55;;;;;;;5.93;2.33;;;;;;;12.46;100.00;102186.06;5040272;28;20041;-74
2022/12/27 11:47:41;;;;;;;6.68;2.97;;;;;;;12.13;100.00;102183.19;5038630;28;20056;-75
2022/12/27 11:50:40;;;;;;;12.40;3.60;;;;;;;11.93;100.00;102183.63;5038734;28;20104;-71
2022/12/27 11:53:18;;;;;;;15.32;3.80;;;;;;;11.98;100.00;102169.47;5013079;28;20060;-74
2022/12/27 11:56:15;;;;;;;5.15;2.03;;;;;;;11.99;100.00;102157.19;5045183;28;20048;-71
2022/12/27 11:58:53;;;;;;;3.05;1.40;;;;;;;12.54;100.00;102170.31;5032530;28;20053;-74
2022/12/27 12:01:32;;;;;;;8.23;2.95;;;;;;;12.59;100.00;102165.22;5037707;28;20056;-73
2022/12/27 12:04:05;;;;;;;9.18;3.53;;;;;;;12.87;100.00;102159.25;5036838;28;20168;-74
2022/12/27 12:07:10;;;;;;;4.60;1.92;;;;;;;12.94;100.00;102162.09;5038635;28;20766;-73
2022/12/27 12:09:45;;;;;;;8.95;1.85;;;;;;;13.59;100.00;102159.63;5038982;28;20049;-72
2022/12/27 12:12:48;;;;;;;6.05;1.45;;;;;;;14.47;95.70;102169.50;5036939;28;20051;-73
2022/12/27 12:15:36;;;;;;;12.70;2.78;;;;;;;13.64;100.00;102165.69;5038733;28;20052;-72
2022/12/27 12:18:12;;;;;;;20.13;7.32;;;;;;;14.71;93.60;102152.94;5044014;28;20755;-72
2022/12/27 12:20:57;;;;;;;11.45;2.65;;;;;;;15.05;83.98;102159.03;5036284;28;20056;-73
2022/12/27 12:23:50;;;;;;;6.85;1.95;;;;;;;15.40;83.07;102151.59;5031349;28;20055;-73
2022/12/27 12:26:20;;;;;;;4.47;1.95;;;;;;;15.53;79.48;102150.00;5038819;28;20726;-73
2022/12/27 12:29:02;;;;;;;6.60;1.95;;;;;;;15.11;82.04;102147.13;5033716;28;20062;-73
2022/12/27 12:31:56;;;;;;;7.40;2.35;;;;;;;14.47;86.51;102141.66;5043079;28;20048;-73
2022/12/27 12:34:44;;;;;;;10.48;2.95;;;;;;;13.66;95.83;102132.69;5038614;28;20581;-74
2022/12/27 12:37:29;;;;;;;7.88;1.92;;;;;;;12.01;100.00;102135.41;5047226;28;20265;-73
2022/12/27 12:40:18;;;;;;;11.38;2.45;;;;;;;11.51;100.00;102132.97;5041771;28;20050;-73
2022/12/27 12:43:20;;;;;;;12.23;3.45;;;;;;;11.10;100.00;102125.50;5035504;28;20817;-75
2022/12/27 12:46:01;;;;;;;11.82;3.15;;;;;;;10.43;100.00;102135.97;5044822;28;20064;-75
2022/12/27 12:49:09;;;;;;;7.68;3.17;;;;;;;10.47;100.00;102127.78;5040631;28;20049;-73
2022/12/27 12:51:49;;;;;;;11.30;3.13;;;;;;;10.37;100.00;102120.81;5043073;28;20052;-76
2022/12/27 12:54:36;;;;;;;3.53;1.65;;;;;;;10.27;100.00;102110.31;5041798;28;20049;-76
2022/12/27 12:57:22;;;;;;;7.85;2.15;;;;;;;9.74;100.00;102111.03;5045112;28;20052;-72
2022/12/27 13:00:01;;;;;;;8.48;1.98;;;;;;;9.95;100.00;102113.50;5048974;28;20071;-72
2022/12/27 13:02:27;;;;;;;5.93;1.77;;;;;;;9.77;100.00;102107.56;5040007;28;20155;-74
2022/12/27 13:05:10;;;;;;;9.95;2.10;;;;;;;9.68;100.00;102095.06;5032062;28;20045;-74
2022/12/27 13:08:03;;;;;;;6.40;2.85;;;;;;;9.54;100.00;102092.78;5040153;28;20065;-72
2022/12/27 13:10:54;;;;;;;11.20;3.80;;;;;;;9.65;100.00;102090.28;5039165;28;20048;-74
2022/12/27 13:13:51;;;;;;;4.65;1.40;;;;;;;9.45;100.00;102086.63;5038631;28;20056;-73
2022/12/27 13:17:01;;;;;;;6.47;2.35;;;;;;;9.52;100.00;102077.72;5042395;28;20056;-74
2022/12/27 13:19:49;;;;;;;3.20;1.52;;;;;;;9.58;100.00;102081.78;5033633;28;20122;-74
2022/12/27 13:22:36;;;;;;;5.65;1.65;;;;;;;9.70;100.00;102082.50;5041341;28;20095;-74
2022/12/27 13:25:25;;;;;;;9.18;2.40;;;;;;;10.25;100.00;102079.47;5037416;28;20783;-72
2022/12/27 13:28:15;;;;;;;10.70;2.80;;;;;;;9.97;100.00;102087.09;5042175;28;20048;-74
2022/12/27 13:30:57;;;;;;;7.20;1.92;;;;;;;10.79;100.00;102075.81;5040189;28;20513;-73
2022/12/27 13:33:42;;;;;;;6.65;2.25;;;;;;;11.24;100.00;102078.66;5041589;28;20122;-74
2022/12/27 13:36:21;;;;;;;4.53;1.73;;;;;;;10.82;100.00;102064.00;5039697;28;20053;-73
2022/12/27 13:39:06;;;;;;;5.07;1.73;;;;;;;10.50;100.00;102069.72;5042711;28;20045;-75
2022/12/27 13:42:07;;;;;;;13.27;2.80;;;;;;;10.34;100.00;102069.00;5046895;28;20065;-74
2022/12/27 13:45:01;;;;;;;0.52;0.52;;;;;;;10.49;100.00;102064.53;5041198;28;20302;-74
2022/12/27 13:47:49;;;;;;;1.00;0.90;;;;;;;11.93;100.00;102056.84;5043170;28;20098;-73
2022/12/27 13:50:22;;;;;;;13.00;2.63;;;;;;;11.55;100.00;102059.00;5041086;28;20892;-74
2022/12/27 13:52:54;;;;;;;5.53;2.05;;;;;;;10.65;100.00;102061.69;5038888;28;20045;-75
2022/12/27 13:55:41;;;;;;;1.38;0.95;;;;;;;10.10;100.00;102063.69;5040268;28;20118;-74
2022/12/27 13:58:07;;;;;;;3.97;1.70;;;;;;;9.85;100.00;102061.50;5046668;28;20148;-74
2022/12/27 14:00:47;;;;;;;4.63;1.90;;;;;;;9.75;100.00;102051.00;5044371;28;20044;-75
2022/12/27 14:03:34;;;;;;;8.27;3.33;;;;;;;9.56;100.00;102051.78;5042150;28;20052;-73
2022/12/27 14:06:17;;;;;;;17.27;5.03;;;;;;;9.66;100.00;102042.13;5039158;28;20144;-72
2022/12/27 14:09:23;;;;;;;4.10;2.00;;;;;;;9.42;100.00;102048.66;5042867;28;20052;-71
2022/12/27 14:12:05;;;;;;;6.03;2.55;;;;;;;9.38;100.00;102042.22;5032363;28;20049;-74
2022/12/27 14:14:34;;;;;;;2.13;0.90;;;;;;;9.48;100.00;102041.69;5036378;28;20517;-74
2022/12/27 14:17:28;;;;;;;4.00;2.15;;;;;;;9.39;100.00;102035.53;5045569;28;20057;-73
2022/12/27 14:20:05;;;;;;;5.50;1.95;;;;;;;9.38;100.00;102036.72;5036639;28;20057;-74
2022/12/27 14:22:55;;;;;;;10.93;3.00;;;;;;;9.32;100.00;102034.59;5039971;28;20655;-72
2022/12/27 14:25:34;;;;;;;13.98;2.83;;;;;;;9.20;100.00;102029.94;5037475;28;20040;-74
2022/12/27 14:28:09;;;;;;;2.65;1.55;;;;;;;9.35;100.00;102031.91;5036669;28;20057;-73
2022/12/27 14:30:49;;;;;;;4.07;1.70;;;;;;;9.26;100.00;102033.25;5036788;28;20052;-75
2022/12/27 14:33:34;;;;;;;13.55;2.70;;;;;;;9.28;100.00;102020.69;5040176;28;20082;-72
2022/12/27 14:36:10;;;;;;;5.00;1.95;;;;;;;9.23;100.00;102015.44;5038996;28;20874;-72
2022/12/27 14:38:45;;;;;;;4.88;1.92;;;;;;;9.23;100.00;102012.66;5045658;28;20059;-75
2022/12/27 14:41:37;;;;;;;1.58;0.98;;;;;;;9.20;100.00;102007.84;5034822;28;20835;-72
2022/12/27 14:44:19;;;;;;;6.20;2.83;;;;;;;9.32;100.00;102007.75;5042565;28;20514;-73
2022/12/27 14:47:10;;;;;;;10.73;2.90;;;;;;;9.20;100.00;102009.81;5042241;28;20044;-75
2022/12/27 14:50:05;;;;;;;14.18;3.50;;;;;;;9.34;100.00;102008.19;5042058;28;20060;-75
2022/12/27 14:52:43;;;;;;;2.08;0.93;;;;;;;9.17;100.00;102011.34;5040795;28;20052;-73
2022/12/27 14:55:49;;;;;;;5.45;2.15;;;;;;;9.14;100.00;102000.19;5038009;28;20826;-73
2022/12/27 14:58:39;;;;;;;8.88;2.33;;;;;;;9.20;100.00;102005.09;5041761;28;20055;-74
2022/12/27 15:01:48;;;;;;;2.95;1.58;;;;;;;9.14;100.00;102008.47;5039395;28;20692;-73
2022/12/27 15:04:52;;;;;;;7.15;1.65;;;;;;;9.10;100.00;102013.91;5032333;28;20059;-72
2022/12/27 15:07:52;;;;;;;3.28;1.05;;;;;;;9.14;100.00;102009.28;5040891;28;20950;-73
2022/12/27 15:10:45;;;;;;;4.30;1.83;;;;;;;9.12;100.00;102000.56;5047265;28;20044;-75
2022/12/27 15:13:31;;;;;;;15.18;1.73;;;;;;;8.94;100.00;101998.50;5035361;28;20426;-73
2022/12/27 15:16:04;;;;;;;1.27;1.10;;;;;;;9.07;100.00;101995.28;5041843;28;20053;-73
2022/12/27 15:18:52;;;;;;;9.23;1.73;;;;;;;9.01;100.00;101998.69;5039243;28;20048;-75
2022/12/27 15:21:19;;;;;;;1.55;1.05;;;;;;;8.98;100.00;101989.13;5040774;28;20502;-76
2022/12/27 15:23:46;;;;;;;1.80;0.95;;;;;;;8.98;100.00;101985.59;5041524;28;20103;-74
2022/12/27 15:26:15;;;;;;;9.13;2.53;;;;;;;8.97;100.00;101984.78;5045029;28;20049;-74
2022/12/27 15:29:08;;;;;;;9.15;2.15;;;;;;;8.96;100.00;101983.19;5038692;28;20573;-75
2022/12/27 15:31:44;;;;;;;4.97;1.98;;;;;;;8.86;100.00;101986.47;5040901;28;20741;-72
2022/12/27 15:34:10;;;;;;;;;;;;;;;8.84;100.00;101982.47;5041814;28;20501;-72
2022/12/27 15:36:46;;;;;;;6.82;2.78;;;;;;;8.71;100.00;101981.72;5036780;28;19924;-73
2022/12/27 15:39:32;;;;;;;12.25;2.42;;;;;;;8.81;100.00;101980.44;5042600;28;20062;-72
2022/12/27 15:42:32;;;;;;;6.88;1.55;;;;;;;8.80;100.00;101987.06;5043343;28;20052;-74
2022/12/27 15:45:08;;;;;;;9.98;3.15;;;;;;;8.84;100.00;101986.03;5039334;28;20643;-72
2022/12/27 15:47:38;;;;;;;8.65;2.10;;;;;;;8.72;100.00;101977.84;5044880;28;20787;-73
2022/12/27 15:50:32;;;;;;;5.60;1.77;;;;;;;8.77;100.00;101969.28;5044998;28;20128;-73
2022/12/27 15:53:23;;;;;;;4.80;1.48;;;;;;;8.83;100.00;101970.63;5040984;28;20056;-74
2022/12/27 15:56:23;;;;;;;4.25;2.03;;;;;;;8.84;100.00;101958.41;5040751;28;20144;-75
2022/12/27 15:59:27;;;;;;;5.15;1.48;;;;;;;8.79;100.00;101966.97;5033672;28;20049;-75
2022/12/27 16:02:18;;;;;;;7.57;1.85;;;;;;;8.72;100.00;101969.56;5039666;28;20048;-73
2022/12/27 16:04:51;;;;;;;2.67;1.45;;;;;;;8.80;100.00;101954.78;5047946;28;20090;-74
2022/12/27 16:08:09;;;;;;;9.40;2.92;;;;;;;8.79;100.00;101961.47;5036568;28;20059;-72
2022/12/27 16:10:41;;;;;;;12.32;3.05;;;;;;;8.73;100.00;101959.28;5052452;28;20052;-71
2022/12/27 16:13:08;;;;;;;6.40;2.60;;;;;;;8.78;100.00;101968.13;5051813;28;20471;-72
2022/12/27 16:15:46;;;;;;;5.07;2.13;;;;;;;8.85;100.00;101968.31;5046329;28;20059;-74
2022/12/27 16:18:15;;;;;;;11.68;1.17;;;;;;;8.78;100.00;101970.88;5041856;28;20156;-73
2022/12/27 16:21:17;;;;;;;11.68;2.95;;;;;;;8.81;100.00;101967.41;5039564;28;20053;-72
2022/12/27 16:23:54;;;;;;;5.07;1.48;;;;;;;8.82;100.00;101968.22;5043484;28;20048;-73
2022/12/27 16:26:25;;;;;;;9.73;2.10;;;;;;;8.86;100.00;101963.59;5048187;28;20044;-74
2022/12/27 16:28:56;;;;;;;8.07;3.20;;;;;;;8.83;100.00;101970.63;5046315;28;20052;-73
2022/12/27 16:31:29;;;;;;;1.92;1.35;;;;;;;8.87;100.00;101962.44;5045677;28;20842;-73
2022/12/27 16:33:58;;;;;;;4.03;1.77;;;;;;;8.76;100.00;101955.84;5046891;28;20060;-73
2022/12/27 16:36:34;;;;;;;2.47;1.55;;;;;;;8.77;100.00;101944.44;5038857;28;20491;-73
2022/12/27 16:39:10;;;;;;;4.18;1.30;;;;;;;8.80;100.00;101951.19;5046902;28;20078;-73
2022/12/27 16:41:48;;;;;;;8.27;2.17;;;;;;;8.86;100.00;101947.84;5047707;28;20048;-73
2022/12/27 16:44:24;;;;;;;10.20;1.80;;;;;;;8.82;100.00;101952.47;5037166;28;20520;-72
2022/12/27 16:46:56;;;;;;;4.75;2.38;;;;;;;8.78;100.00;101940.50;5044914;28;20488;-73
2022/12/27 16:49:37;;;;;;;9.05;3.00;;;;;;;8.98;100.00;101950.50;5038605;28;20056;-75
2022/12/27 16:52:43;;;;;;;5.68;1.75;;;;;;;8.94;100.00;101946.06;5038720;28;20056;-74
2022/12/27 16:55:39;;;;;;;9.25;2.67;;;;;;;8.98;100.00;101942.22;5034669;28;20049;-75
2022/12/27 16:58:21;;;;;;;2.17;1.10;;;;;;;8.98;100.00;101946.94;5045332;28;20052;-73
2022/12/27 17:00:50;;;;;;;10.55;3.17;;;;;;;9.00;100.00;101942.66;5042429;28;20052;-75
2022/12/27 17:03:37;;;;;;;6.85;2.42;;;;;;;9.10;100.00;101947.66;5041706;28;20171;-73
2022/12/27 17:06:13;;;;;;;2.67;1.27;;;;;;;9.15;100.00;101943.81;5042051;28;20155;-73
2022/12/27 17:09:07;;;;;;;2.63;1.48;;;;;;;9.09;100.00;101946.06;5047258;28;20060;-73
2022/12/27 17:11:35;;;;;;;11.00;2.13;;;;;;;9.12;100.00;101933.47;5041819;28;20048;-72
2022/12/27 17:14:14;;;;;;;5.32;1.25;;;;;;;9.11;100.00;101943.72;5038990;28;20581;-73
2022/12/27 17:16:47;;;;;;;5.95;1.65;;;;;;;9.17;100.00;101936.78;5040508;28;20057;-73
2022/12/27 17:19:19;;;;;;;9.80;2.65;;;;;;;9.23;100.00;101921.53;5044405;28;20048;-73
2022/12/27 17:21:53;;;;;;;3.72;1.50;;;;;;;9.19;100.00;101923.41;5045836;28;20044;-73
2022/12/27 17:24:22;;;;;;;10.07;2.47;;;;;;;9.18;100.00;101919.03;5046323;28;20048;-72
2022/12/27 17:26:57;;;;;;;4.10;1.63;;;;;;;9.21;100.00;101921.09;5045674;28;20036;-74
2022/12/27 17:29:30;;;;;;;5.50;1.95;;;;;;;9.14;100.00;101926.44;5041092;28;20058;-74
2022/12/27 17:32:26;;;;;;;7.75;2.30;;;;;;;8.99;100.00;101926.47;5045506;28;20058;-73
2022/12/27 17:35:14;;;;;;;4.68;2.28;;;;;;;9.02;100.00;101922.97;5046092;28;20505;-73
2022/12/27 17:38:02;;;;;;;4.43;1.88;;;;;;;9.01;100.00;101922.16;5047980;28;20048;-73
2022/12/27 17:41:07;;;;;;;5.40;1.90;;;;;;;9.02;100.00;101912.75;5038407;28;20055;-75
2022/12/27 17:47:05;;;;;;;6.47;2.00;;;;;;;9.00;100.00;101911.47;5045667;28;20041;-74
2022/12/27 17:49:40;;;;;;;14.82;2.78;;;;;;;8.82;100.00;101919.34;5041172;28;20048;-73
2022/12/27 17:58:08;;;;;;;11.90;3.95;;;;;;;8.95;100.00;101922.81;5046794;28;20056;-75
2022/12/27 18:00:42;;;;;;;4.88;2.08;;;;;;;9.01;100.00;101913.09;5042519;28;20048;-73
2022/12/27 18:03:12;;;;;;;3.70;2.00;;;;;;;9.06;100.00;101919.16;5044767;28;20111;-75
2022/12/27 18:05:42;;;;;;;8.00;2.00;;;;;;;9.00;100.00;101911.47;5042790;28;20708;-76
2022/12/27 18:08:24;;;;;;;7.15;1.83;;;;;;;8.98;100.00;101911.84;5044878;28;20052;-73
2022/12/27 18:10:51;;;;;;;11.13;3.17;;;;;;;8.96;100.00;101914.19;5042211;28;20143;-73
2022/12/27 18:13:21;;;;;;;10.38;2.95;;;;;;;8.87;100.00;101913.56;5036000;28;20044;-73
2022/12/27 18:15:49;;;;;;;1.10;0.85;;;;;;;8.87;100.00;101908.03;5043921;28;20871;-72
2022/12/27 18:18:27;;;;;;;5.70;2.50;;;;;;;8.75;100.00;101902.63;5042341;28;20048;-72
2022/12/27 18:20:58;;;;;;;5.97;2.22;;;;;;;8.71;100.00;101898.94;5038467;28;20049;-72
2022/12/27 18:23:25;;;;;;;6.30;3.78;;;;;;;8.71;100.00;101896.19;5046257;28;20826;-74
2022/12/27 18:26:12;;;;;;;7.30;2.15;;;;;;;8.64;100.00;101895.22;5042682;28;20056;-73
2022/12/27 18:28:41;;;;;;;8.32;1.73;;;;;;;8.66;100.00;101890.13;5043344;28;20057;-73
2022/12/27 18:31:13;;;;;;;8.10;2.78;;;;;;;8.55;100.00;101883.56;5043398;28;20958;-75
2022/12/27 18:34:05;;;;;;;7.80;1.92;;;;;;;8.48;100.00;101878.66;5042629;28;20052;-73
2022/12/27 18:36:32;;;;;;;9.73;2.70;;;;;;;8.48;100.00;101875.09;5040139;28;20041;-74
2022/12/27 18:39:40;;;;;;;11.00;3.30;;;;;;;8.39;100.00;101871.69;5039586;28;20056;-74
2022/12/27 18:42:29;;;;;;;9.20;3.50;;;;;;;8.43;100.00;101867.09;5020196;28;20056;-73
2022/12/27 18:45:07;;;;;;;5.60;2.03;;;;;;;8.39;100.00;101866.19;5042461;28;20052;-74
2022/12/27 18:47:38;;;;;;;2.20;1.60;;;;;;;8.37;100.00;101863.78;5038707;28;20044;-75
2022/12/27 18:50:15;;;;;;;9.13;2.05;;;;;;;8.35;100.00;101857.84;5042572;28;20052;-74
2022/12/27 18:52:42;;;;;;;6.20;2.90;;;;;;;8.37;100.00;101860.25;5039800;28;20052;-72
2022/12/27 18:55:16;;;;;;;15.90;3.13;;;;;;;8.27;100.00;101861.56;5037008;28;20515;-75
2022/12/27 18:57:43;;;;;;;8.18;2.08;;;;;;;8.16;100.00;101863.19;5041556;28;20055;-72
2022/12/27 19:00:23;;;;;;;10.90;1.88;;;;;;;8.26;100.00;101862.72;5038485;28;20057;-75
2022/12/27 19:02:50;;;;;;;5.65;1.70;;;;;;;8.13;100.00;101866.66;5038099;28;20048;-73
2022/12/27 19:05:20;;;;;;;10.07;2.67;;;;;;;8.31;100.00;101865.22;5044350;28;20045;-74
2022/12/27 19:07:52;;;;;;;6.65;1.92;;;;;;;8.23;100.00;101868.94;5042130;28;20115;-72
2022/12/27 19:10:21;;;;;;;7.35;2.05;;;;;;;8.15;100.00;101864.38;5041726;28;20593;-73
2022/12/27 19:12:48;;;;;;;12.75;4.47;;;;;;;8.17;100.00;101858.50;5041501;28;20162;-72
2022/12/27 19:15:17;;;;;;;13.38;4.40;;;;;;;8.15;100.00;101861.59;5041421;28;20045;-72
2022/12/27 19:17:47;;;;;;;3.08;2.17;;;;;;;8.09;100.00;101868.53;5043737;28;20817;-73
2022/12/27 19:20:26;;;;;;;11.27;3.47;;;;;;;7.97;100.00;101857.56;5032772;28;20078;-73
2022/12/27 19:22:56;;;;;;;10.77;2.25;;;;;;;7.96;100.00;101842.97;5039966;28;20049;-73
2022/12/27 19:25:30;;;;;;;5.07;1.75;;;;;;;8.01;100.00;101847.44;5044119;28;20052;-72
2022/12/27 19:28:02;;;;;;;11.25;2.85;;;;;;;7.95;100.00;101843.34;5039088;28;20049;-72
2022/12/27 19:30:45;;;;;;;4.13;1.98;;;;;;;8.00;100.00;101837.56;5037777;28;20656;-72
2022/12/27 19:33:27;;;;;;;8.55;3.33;;;;;;;7.99;100.00;101838.72;5034431;28;20056;-73
2022/12/27 19:35:55;;;;;;;4.32;2.33;;;;;;;8.04;100.00;101844.00;5035817;28;20044;-73
2022/12/27 19:38:25;;;;;;;4.28;1.67;;;;;;;7.93;100.00;101842.88;5045349;28;20040;-72
2022/12/27 19:40:57;;;;;;;9.43;2.95;;;;;;;7.84;100.00;101834.75;5035187;28;20045;-74
2022/12/27 19:43:38;;;;;;;10.52;3.13;;;;;;;7.85;100.00;101830.88;5039262;28;20168;-74
2022/12/27 19:46:05;;;;;;;5.63;2.17;;;;;;;7.98;100.00;101815.06;5038204;28;20055;-74
2022/12/27 19:48:32;;;;;;;10.38;3.13;;;;;;;7.86;100.00;101824.22;5036888;28;20048;-73
2022/12/27 19:50:58;;;;;;;3.72;2.05;;;;;;;7.83;100.00;101821.34;5040725;28;20075;-73
2022/12/27 19:53:37;;;;;;;4.72;2.33;;;;;;;7.72;100.00;101823.00;5040003;28;20063;-72
2022/12/27 19:56:07;;;;;;;10.88;2.67;;;;;;;7.72;100.00;101823.00;5043192;28;20056;-72
2022/12/27 19:58:34;;;;;;;7.10;2.83;;;;;;;7.85;100.00;101821.81;5042317;28;20064;-71
2022/12/27 20:01:01;;;;;;;7.60;2.42;;;;;;;7.86;100.00;101809.63;5034150;28;20057;-74
2022/12/27 20:03:27;;;;;;;7.82;2.22;;;;;;;7.87;100.00;101805.72;5044906;28;20541;-72
2022/12/27 20:05:57;;;;;;;9.80;3.65;;;;;;;7.87;100.00;101812.03;5037333;28;20061;-72